Time;durP1;ratioP1;P1;durP2;ratioP2;P2;SDS_P1;SDS_P2;PMS_P1;PMS_P2;Temp;Humidity;BMP_temperature;BMP_pressure;BME280_temperature;BME280_humidity;BME280_pressure;Samples;Min_cycle;Max_cycle;Signal;HPM_P1;HPM_P2
2021/01/01 00:00:14;;;;;;;25.10;19.05;;;;;;;18.32;26.38;93895.25;5109127;28;20363;-53
2021/01/01 00:02:42;;;;;;;25.08;19.25;;;;;;;18.05;26.69;93890.88;5075051;28;20127;-51
2021/01/01 00:05:15;;;;;;;24.52;19.13;;;;;;;18.04;26.76;93892.75;5075190;28;20051;-52
2021/01/01 00:07:44;;;;;;;29.25;21.00;;;;;;;18.04;26.88;93899.91;5108649;28;20051;-50
2021/01/01 00:10:12;;;;;;;28.50;21.45;;;;;;;18.10;26.71;93909.09;5094886;28;20071;-52
2021/01/01 00:12:39;;;;;;;17.67;12.93;;;;;;;18.30;26.48;93908.06;5094132;28;20048;-52
2021/01/01 00:15:07;;;;;;;32.97;26.65;;;;;;;18.14;26.41;93909.94;5113643;28;20062;-52
2021/01/01 00:17:34;;;;;;;39.67;29.02;;;;;;;17.80;26.84;93911.44;5115303;28;20044;-56
2021/01/01 00:20:03;;;;;;;36.22;27.38;;;;;;;18.21;26.31;93918.03;5114219;28;20058;-52
2021/01/01 00:22:32;;;;;;;31.02;23.10;;;;;;;18.77;25.50;93910.59;5092707;28;20071;-53
2021/01/01 00:24:59;;;;;;;31.58;22.90;;;;;;;19.21;25.08;93912.91;5093380;28;20044;-56
2021/01/01 00:27:29;;;;;;;41.90;29.70;;;;;;;19.08;25.96;93930.84;5094299;28;20055;-50
2021/01/01 00:30:00;;;;;;;44.08;30.85;;;;;;;19.29;25.08;93919.88;5090779;28;20358;-54
2021/01/01 00:32:27;;;;;;;42.35;31.73;;;;;;;19.63;24.77;93923.53;5094206;28;20049;-57
2021/01/01 00:34:54;;;;;;;40.85;32.83;;;;;;;18.48;26.41;93926.97;5093777;28;20473;-53
2021/01/01 00:37:21;;;;;;;43.55;33.60;;;;;;;18.72;26.31;93928.59;5094684;28;20086;-50
2021/01/01 00:39:48;;;;;;;43.30;35.40;;;;;;;18.68;26.48;93935.72;5094193;28;20473;-52
2021/01/01 00:42:16;;;;;;;54.30;39.80;;;;;;;18.46;27.06;93939.75;5093928;28;20047;-51
2021/01/01 00:44:43;;;;;;;53.03;38.75;;;;;;;18.13;27.40;93935.63;5093960;28;20043;-49
2021/01/01 00:47:11;;;;;;;56.35;40.47;;;;;;;18.38;27.31;93938.84;5092810;28;20411;-52
2021/01/01 00:49:38;;;;;;;55.58;42.00;;;;;;;19.33;26.55;93939.28;5091604;28;20378;-53
2021/01/01 00:52:06;;;;;;;52.88;40.10;;;;;;;19.82;25.94;93943.94;5091308;28;20048;-50
2021/01/01 00:54:33;;;;;;;56.05;41.35;;;;;;;20.41;25.02;93944.47;5091184;28;20048;-52
2021/01/01 00:57:01;;;;;;;56.13;42.88;;;;;;;21.03;24.31;93952.88;5091972;28;20055;-49
2021/01/01 00:59:28;;;;;;;51.83;40.97;;;;;;;20.27;25.37;93945.00;5080269;28;20060;-52
2021/01/01 01:01:56;;;;;;;51.63;39.22;;;;;;;20.18;25.24;93950.56;5107870;28;20047;-49
2021/01/01 01:04:23;;;;;;;54.83;40.35;;;;;;;19.36;26.29;93945.75;5056319;28;20040;-56
2021/01/01 01:06:50;;;;;;;49.35;36.55;;;;;;;19.33;26.64;93951.75;5087930;28;20047;-53
2021/01/01 01:09:18;;;;;;;52.67;38.70;;;;;;;18.70;26.94;93952.78;5114857;28;20078;-49
2021/01/01 01:11:45;;;;;;;52.50;39.58;;;;;;;18.05;28.24;93952.47;5100042;28;20051;-50
2021/01/01 01:14:12;;;;;;;44.47;34.35;;;;;;;18.66;27.42;93954.59;5099389;28;20048;-50
2021/01/01 01:16:40;;;;;;;48.33;35.50;;;;;;;18.34;27.72;93951.22;5058996;28;20049;-52
2021/01/01 01:19:07;;;;;;;48.78;36.33;;;;;;;18.09;28.40;93957.84;5074046;28;20082;-52
2021/01/01 01:21:34;;;;;;;47.15;34.97;;;;;;;18.12;28.50;93959.78;5066155;28;20368;-51
2021/01/01 01:24:01;;;;;;;43.88;34.95;;;;;;;17.90;28.40;93963.78;5053751;28;20059;-51
2021/01/01 01:26:29;;;;;;;54.65;37.88;;;;;;;18.07;28.40;93968.00;5053144;28;20052;-49
2021/01/01 01:28:56;;;;;;;46.92;36.45;;;;;;;17.41;28.78;93968.56;5053510;28;20324;-53
2021/01/01 01:31:23;;;;;;;44.65;33.67;;;;;;;17.72;29.13;93973.97;5065626;28;20041;-50
2021/01/01 01:33:50;;;;;;;47.03;34.45;;;;;;;17.08;29.61;93966.97;5073420;28;20048;-52
2021/01/01 01:36:17;;;;;;;41.63;32.42;;;;;;;17.71;28.84;93966.38;5075951;28;20052;-51
2021/01/01 01:38:44;;;;;;;42.03;30.75;;;;;;;18.34;28.01;93974.28;5083017;28;20044;-51
2021/01/01 01:41:11;;;;;;;43.33;32.33;;;;;;;18.03;28.04;93980.38;5063889;28;20044;-50
2021/01/01 01:43:38;;;;;;;42.40;30.73;;;;;;;17.94;28.40;93971.81;5073232;28;20045;-53
2021/01/01 01:46:06;;;;;;;43.13;33.47;;;;;;;17.65;28.59;93971.09;5073379;28;20083;-47
2021/01/01 01:48:35;;;;;;;47.78;34.30;;;;;;;17.65;28.06;93983.53;5070085;28;20060;-50
2021/01/01 01:51:03;;;;;;;48.58;35.25;;;;;;;17.20;29.50;93985.41;5044394;28;20059;-50
2021/01/01 01:53:37;;;;;;;42.33;31.50;;;;;;;17.79;28.59;93982.06;5073220;28;20070;-47
2021/01/01 01:56:05;;;;;;;44.75;33.78;;;;;;;17.56;28.12;93983.69;5073175;28;20379;-49
2021/01/01 01:58:32;;;;;;;42.67;31.92;;;;;;;17.97;28.19;93989.66;5055746;28;20061;-53
2021/01/01 02:00:59;;;;;;;47.22;35.72;;;;;;;17.69;28.07;93984.41;5068097;28;20448;-51
2021/01/01 02:03:31;;;;;;;43.53;32.58;;;;;;;17.94;27.93;94000.91;5073133;28;20040;-49
2021/01/01 02:06:00;;;;;;;42.92;32.85;;;;;;;17.67;28.39;93987.41;5067250;28;20048;-50
2021/01/01 02:08:27;;;;;;;43.63;32.75;;;;;;;17.41;28.98;93990.47;5053064;28;20049;-52
2021/01/01 02:10:56;;;;;;;44.25;32.05;;;;;;;17.76;28.47;93993.31;5059499;28;20391;-49
2021/01/01 02:13:24;;;;;;;44.72;32.83;;;;;;;17.59;28.50;93985.66;5057653;28;20048;-48
2021/01/01 02:15:51;;;;;;;44.67;32.67;;;;;;;17.40;28.37;93988.94;5073258;28;20381;-50
2021/01/01 02:18:39;;;;;;;43.47;32.33;;;;;;;16.99;29.21;93995.38;5073207;28;20044;-50
2021/01/01 02:21:07;;;;;;;44.65;32.58;;;;;;;17.48;28.90;93989.91;5081330;28;20055;-51
2021/01/01 02:23:35;;;;;;;44.20;33.25;;;;;;;17.27;28.16;93984.84;5077712;28;20056;-52
2021/01/01 02:26:03;;;;;;;40.95;31.23;;;;;;;17.14;28.91;93992.03;5073387;28;20063;-53
2021/01/01 02:28:30;;;;;;;45.58;34.63;;;;;;;17.02;29.10;93991.31;5073169;28;20048;-52
2021/01/01 02:30:57;;;;;;;42.38;30.35;;;;;;;17.38;28.77;93995.66;5079754;28;20051;-52
2021/01/01 02:33:25;;;;;;;46.30;33.00;;;;;;;17.03;28.70;94006.81;5093391;28;20044;-48
2021/01/01 02:35:52;;;;;;;37.72;30.42;;;;;;;17.25;28.65;94003.66;5093179;28;20757;-52
2021/01/01 02:38:19;;;;;;;43.85;33.33;;;;;;;16.97;28.56;94002.88;5113526;28;20051;-53
2021/01/01 02:40:47;;;;;;;46.35;35.30;;;;;;;16.90;29.27;94007.94;5111411;28;20366;-55
2021/01/01 02:43:15;;;;;;;47.28;33.92;;;;;;;17.06;29.10;94011.41;5096723;28;20052;-50
2021/01/01 02:45:42;;;;;;;43.55;31.23;;;;;;;17.13;28.48;94006.31;5096569;28;20062;-52
2021/01/01 02:48:18;;;;;;;39.00;30.40;;;;;;;17.00;28.44;94012.75;5096655;28;20386;-51
2021/01/01 02:50:45;;;;;;;51.42;36.90;;;;;;;16.54;29.44;94016.66;5096288;28;20442;-49
2021/01/01 02:53:13;;;;;;;62.90;42.20;;;;;;;16.61;30.07;94022.91;5096343;28;20381;-50
2021/01/01 02:55:40;;;;;;;59.67;41.60;;;;;;;16.85;29.40;94016.09;5079969;28;20059;-51
2021/01/01 02:58:08;;;;;;;55.50;39.67;;;;;;;16.58;29.92;94018.31;5076283;28;20048;-51
2021/01/01 03:00:37;;;;;;;62.22;43.13;;;;;;;16.50;30.54;94016.56;5078792;28;20489;-53
2021/01/01 03:03:04;;;;;;;64.25;41.28;;;;;;;16.47;30.42;94016.44;5096295;28;20052;-52
2021/01/01 03:05:32;;;;;;;62.65;41.20;;;;;;;16.43;30.59;94016.34;5096144;28;20067;-50
2021/01/01 03:07:59;;;;;;;64.45;44.28;;;;;;;16.50;30.56;94024.47;5112851;28;20055;-54
2021/01/01 03:10:26;;;;;;;64.85;46.08;;;;;;;16.57;30.37;94021.28;5115093;28;20047;-49
2021/01/01 03:12:53;;;;;;;63.63;43.03;;;;;;;16.68;30.20;94021.63;5096123;28;20044;-51
2021/01/01 03:15:21;;;;;;;60.72;41.17;;;;;;;16.54;30.39;94017.44;5096317;28;20371;-49
2021/01/01 03:17:48;;;;;;;61.92;41.50;;;;;;;16.54;30.34;94022.72;5096333;28;20067;-50
2021/01/01 03:20:15;;;;;;;59.05;41.58;;;;;;;16.52;30.56;94017.00;5096241;28;20050;-49
2021/01/01 03:22:42;;;;;;;58.95;41.83;;;;;;;16.64;30.40;94022.25;5095789;28;20067;-49
2021/01/01 03:25:10;;;;;;;56.47;40.25;;;;;;;16.77;30.15;94015.13;5095974;28;20047;-53
2021/01/01 03:27:37;;;;;;;56.78;39.40;;;;;;;16.71;30.56;94021.75;5084961;28;20052;-53
2021/01/01 03:30:06;;;;;;;56.45;37.65;;;;;;;17.11;29.83;94024.38;5075691;28;20052;-51
2021/01/01 03:32:33;;;;;;;66.72;45.50;;;;;;;17.01;29.92;94029.38;5093544;28;20070;-51
2021/01/01 03:35:00;;;;;;;58.15;40.15;;;;;;;16.84;30.17;94025.88;5095473;28;20047;-47
2021/01/01 03:37:27;;;;;;;56.00;40.60;;;;;;;16.83;30.29;94018.28;5107809;28;20062;-51
2021/01/01 03:39:55;;;;;;;53.05;39.22;;;;;;;16.70;30.14;94019.44;5116174;28;20047;-52
2021/01/01 03:42:22;;;;;;;54.22;39.47;;;;;;;16.80;30.03;94021.59;5098667;28;20039;-50
2021/01/01 03:44:49;;;;;;;52.10;37.85;;;;;;;16.27;30.73;94018.09;5092940;28;20048;-52
2021/01/01 03:47:16;;;;;;;54.05;38.80;;;;;;;16.32;30.62;94017.88;5075277;28;20048;-49
2021/01/01 03:49:43;;;;;;;54.70;36.13;;;;;;;17.02;29.85;94023.00;5075068;28;20048;-51
2021/01/01 03:52:10;;;;;;;54.33;38.83;;;;;;;16.88;29.94;94015.41;5058106;28;20075;-51
2021/01/01 03:54:37;;;;;;;53.60;40.15;;;;;;;16.65;30.12;94018.53;5074892;28;20049;-52
2021/01/01 03:57:04;;;;;;;55.05;39.60;;;;;;;16.64;29.78;94022.25;5074927;28;20048;-51
2021/01/01 03:59:32;;;;;;;55.22;39.45;;;;;;;16.27;30.81;94012.81;5074872;28;20079;-51
2021/01/01 04:01:59;;;;;;;51.05;36.50;;;;;;;16.44;30.17;94027.66;5087439;28;20048;-53
2021/01/01 04:04:26;;;;;;;49.20;36.05;;;;;;;16.52;30.14;94037.34;5095425;28;20051;-51
2021/01/01 04:06:53;;;;;;;49.35;35.70;;;;;;;16.91;29.07;94035.88;5090631;28;20063;-50
2021/01/01 04:09:20;;;;;;;48.45;33.35;;;;;;;16.51;29.58;94047.13;5074878;28;20075;-52
2021/01/01 04:11:47;;;;;;;50.75;34.70;;;;;;;16.32;30.30;94042.38;5085235;28;20048;-48
2021/01/01 04:14:14;;;;;;;44.20;31.17;;;;;;;16.57;30.79;94043.16;5107106;28;20047;-50
2021/01/01 04:16:45;;;;;;;43.85;31.35;;;;;;;16.42;30.33;94054.38;5115393;28;20059;-50
2021/01/01 04:19:13;;;;;;;48.33;33.63;;;;;;;16.52;30.23;94050.53;5115264;28;20446;-48
2021/01/01 04:21:49;;;;;;;49.72;35.55;;;;;;;15.99;29.93;94045.09;5114952;28;20043;-52
2021/01/01 04:24:18;;;;;;;60.20;39.58;;;;;;;15.94;29.94;94052.47;5114672;28;20047;-49
2021/01/01 04:26:45;;;;;;;60.78;41.45;;;;;;;15.79;30.52;94051.22;5099820;28;20052;-50
2021/01/01 04:29:12;;;;;;;54.25;38.20;;;;;;;16.00;30.25;94051.91;5074844;28;20044;-48
2021/01/01 04:31:40;;;;;;;57.75;40.75;;;;;;;15.94;30.15;94053.22;5074389;28;20055;-47
2021/01/01 04:34:07;;;;;;;62.15;42.42;;;;;;;15.71;30.88;94055.47;5074284;28;20044;-51
2021/01/01 04:36:35;;;;;;;62.92;42.72;;;;;;;16.11;30.44;94051.47;5090349;28;20043;-47
2021/01/01 04:39:06;;;;;;;59.10;40.25;;;;;;;15.99;29.98;94055.66;5115088;28;20048;-48
2021/01/01 04:41:34;;;;;;;55.75;39.55;;;;;;;15.75;31.03;94055.59;5114914;28;20098;-52
2021/01/01 04:44:03;;;;;;;55.65;39.03;;;;;;;15.80;30.54;94058.00;5115086;28;20350;-50
2021/01/01 04:46:30;;;;;;;59.50;41.17;;;;;;;16.20;30.49;94054.81;5114120;28;20047;-49
2021/01/01 04:48:58;;;;;;;48.83;35.13;;;;;;;16.28;30.63;94056.56;5091387;28;20447;-50
2021/01/01 04:51:25;;;;;;;47.67;35.33;;;;;;;17.21;28.38;94063.56;5056384;28;20048;-50
2021/01/01 04:53:55;;;;;;;44.60;30.90;;;;;;;16.72;29.91;94056.81;5073910;28;20116;-52
2021/01/01 04:56:23;;;;;;;49.78;35.85;;;;;;;15.91;30.66;94067.06;5079830;28;20324;-53
2021/01/01 04:58:51;;;;;;;45.72;32.53;;;;;;;16.52;29.95;94058.44;5094697;28;20348;-52
2021/01/01 05:01:21;;;;;;;47.45;35.60;;;;;;;15.97;30.31;94073.66;5075844;28;20048;-51
2021/01/01 05:03:49;;;;;;;50.28;35.15;;;;;;;16.11;30.32;94077.84;5075961;28;20043;-51
2021/01/01 05:06:30;;;;;;;56.97;36.97;;;;;;;15.62;30.98;94080.38;5096103;28;20043;-51
2021/01/01 05:08:59;;;;;;;49.42;35.60;;;;;;;15.59;31.07;94088.91;5114495;28;20048;-48
2021/01/01 05:11:27;;;;;;;50.53;36.28;;;;;;;15.72;30.99;94087.88;5114104;28;20047;-51
2021/01/01 05:13:56;;;;;;;51.75;36.05;;;;;;;15.84;31.18;94079.97;5114246;28;20056;-48
2021/01/01 05:16:23;;;;;;;51.20;35.58;;;;;;;15.73;30.75;94094.69;5096111;28;20054;-51
2021/01/01 05:18:52;;;;;;;47.25;33.25;;;;;;;15.41;30.70;94089.03;5114503;28;20044;-50
2021/01/01 05:21:27;;;;;;;52.10;35.20;;;;;;;15.81;30.21;94093.03;5114254;28;20059;-51
2021/01/01 05:23:56;;;;;;;45.15;32.75;;;;;;;15.67;30.43;94088.06;5114382;28;20043;-48
2021/01/01 05:26:27;;;;;;;50.78;34.80;;;;;;;15.86;30.65;94098.88;5114145;28;20047;-50
2021/01/01 05:29:06;;;;;;;49.45;34.72;;;;;;;15.75;29.85;94108.31;5114254;28;20052;-50
2021/01/01 05:31:38;;;;;;;47.63;33.60;;;;;;;15.58;30.06;94111.03;5114148;28;20047;-53
2021/01/01 05:34:08;;;;;;;48.78;33.85;;;;;;;15.59;30.26;94104.72;5113972;28;20058;-47
2021/01/01 05:36:40;;;;;;;46.53;33.35;;;;;;;15.17;31.25;94109.97;5103894;28;20081;-49
2021/01/01 05:39:13;;;;;;;48.03;34.55;;;;;;;15.72;30.54;94114.22;5101831;28;20051;-51
2021/01/01 05:41:42;;;;;;;48.15;33.38;;;;;;;15.46;31.25;94122.31;5114104;28;20051;-46
2021/01/01 05:44:14;;;;;;;48.35;34.50;;;;;;;15.53;30.79;94117.28;5114020;28;20447;-48
2021/01/01 05:47:00;;;;;;;49.30;34.42;;;;;;;15.32;31.14;94121.78;5113636;28;20374;-48
2021/01/01 05:49:34;;;;;;;51.42;34.97;;;;;;;15.41;30.90;94125.91;5114046;28;20047;-49
2021/01/01 05:52:18;;;;;;;49.88;34.75;;;;;;;15.53;29.83;94134.97;5114102;28;20358;-50
2021/01/01 05:54:50;;;;;;;49.72;34.60;;;;;;;15.22;30.75;94130.84;5113763;28;20054;-50
2021/01/01 05:57:19;;;;;;;65.30;41.55;;;;;;;15.38;30.93;94144.22;5113160;28;20051;-50
2021/01/01 05:59:47;;;;;;;57.88;38.38;;;;;;;15.81;29.71;94143.13;5086483;28;20444;-50
2021/01/01 06:02:15;;;;;;;57.85;38.08;;;;;;;15.28;30.29;94148.00;5073323;28;20064;-50
2021/01/01 06:04:42;;;;;;;52.47;37.92;;;;;;;15.59;29.84;94139.72;5073171;28;20371;-50
2021/01/01 06:07:11;;;;;;;51.50;34.92;;;;;;;16.32;30.18;94152.41;5093048;28;20039;-50
2021/01/01 06:09:39;;;;;;;53.35;36.67;;;;;;;15.91;30.11;94148.78;5113809;28;20043;-51
2021/01/01 06:12:07;;;;;;;53.63;35.97;;;;;;;15.93;30.46;94151.88;5113874;28;20389;-51
2021/01/01 06:14:37;;;;;;;49.28;33.53;;;;;;;16.43;29.62;94142.22;5116636;28;20062;-52
2021/01/01 06:17:11;;;;;;;43.65;31.17;;;;;;;16.46;30.10;94152.09;5103222;28;20064;-53
2021/01/01 06:19:57;;;;;;;44.42;32.35;;;;;;;16.61;29.70;94160.13;5076930;28;20055;-50
2021/01/01 06:22:29;;;;;;;46.05;31.50;;;;;;;16.65;29.77;94162.88;5076925;28;20055;-50
2021/01/01 06:24:58;;;;;;;48.35;33.05;;;;;;;16.30;28.69;94165.16;5076862;28;20057;-49
2021/01/01 06:27:27;;;;;;;50.67;35.05;;;;;;;16.14;30.02;94172.16;5083143;28;20378;-51
2021/01/01 06:30:11;;;;;;;50.97;34.97;;;;;;;15.94;30.04;94171.84;5076913;28;20055;-50
2021/01/01 06:32:39;;;;;;;55.75;39.13;;;;;;;16.09;29.87;94174.97;5077022;28;20482;-51
2021/01/01 06:35:17;;;;;;;55.65;37.28;;;;;;;16.18;30.15;94167.75;5076459;28;20056;-52
2021/01/01 06:37:47;;;;;;;49.03;33.90;;;;;;;16.81;29.60;94171.75;5088529;28;20051;-50
2021/01/01 06:40:20;;;;;;;47.40;33.85;;;;;;;17.59;28.57;94183.91;5059315;28;20545;-50
2021/01/01 06:43:18;;;;;;;44.83;34.05;;;;;;;17.61;28.73;94194.13;5096648;28;20056;-52
2021/01/01 06:45:48;;;;;;;51.60;36.10;;;;;;;17.61;28.51;94189.63;5057511;28;20074;-50
2021/01/01 06:48:21;;;;;;;47.78;35.92;;;;;;;17.74;28.60;94204.38;5094732;28;20059;-50
2021/01/01 06:50:53;;;;;;;49.03;35.65;;;;;;;17.97;28.26;94206.53;5096607;28;20055;-51
2021/01/01 06:53:30;;;;;;;49.83;38.05;;;;;;;18.25;28.20;94194.06;5096457;28;20055;-51
2021/01/01 06:56:10;;;;;;;44.92;32.60;;;;;;;18.24;28.29;94194.41;5096614;28;20469;-53
2021/01/01 06:58:38;;;;;;;51.55;37.25;;;;;;;18.30;28.57;94204.41;5087840;28;20370;-50
2021/01/01 07:01:16;;;;;;;57.80;41.25;;;;;;;18.63;27.73;94212.09;5075734;28;20064;-51
2021/01/01 07:03:43;;;;;;;52.92;37.78;;;;;;;18.84;27.44;94201.25;5076067;28;20067;-49
2021/01/01 07:06:10;;;;;;;48.00;34.22;;;;;;;19.30;26.80;94207.63;5078184;28;20047;-51
2021/01/01 07:08:43;;;;;;;47.83;36.45;;;;;;;18.94;27.27;94211.31;5084543;28;20044;-51
2021/01/01 07:11:13;;;;;;;47.35;36.08;;;;;;;18.94;27.49;94210.56;5076100;28;20439;-51
2021/01/01 07:13:49;;;;;;;44.55;33.25;;;;;;;19.22;26.73;94210.44;5075752;28;20459;-53
2021/01/01 07:16:24;;;;;;;47.30;34.30;;;;;;;18.99;27.31;94218.25;5075113;28;20131;-52
2021/01/01 07:18:52;;;;;;;46.28;35.13;;;;;;;19.69;26.34;94221.78;5096010;28;20397;-51
2021/01/01 07:21:20;;;;;;;50.60;37.97;;;;;;;19.62;26.07;94223.50;5085990;28;20056;-50
2021/01/01 07:23:48;;;;;;;53.10;37.95;;;;;;;19.90;25.59;94226.00;5075055;28;20060;-50
2021/01/01 07:26:16;;;;;;;49.50;37.38;;;;;;;19.31;26.70;94219.00;5075865;28;20049;-50
2021/01/01 07:28:45;;;;;;;48.65;36.33;;;;;;;19.39;27.19;94221.47;5095874;28;20051;-48
2021/01/01 07:31:17;;;;;;;45.17;33.05;;;;;;;19.70;25.86;94220.66;5095891;28;20405;-53
2021/01/01 07:33:45;;;;;;;39.97;31.17;;;;;;;19.96;26.27;94221.94;5095484;28;20382;-54
2021/01/01 07:36:14;;;;;;;27.73;20.73;;;;;;;20.19;25.04;94225.44;5097424;28;20339;-49
2021/01/01 07:38:43;;;;;;;21.05;15.27;;;;;;;20.14;24.66;94228.38;5095564;28;20044;-50
2021/01/01 07:41:10;;;;;;;22.98;16.73;;;;;;;20.32;24.74;94229.50;5085865;28;20052;-54
2021/01/01 07:43:40;;;;;;;21.38;16.27;;;;;;;20.53;24.22;94225.72;5075532;28;20431;-52
2021/01/01 07:46:09;;;;;;;16.05;12.50;;;;;;;20.82;23.92;94235.75;5075490;28;20447;-48
2021/01/01 07:48:37;;;;;;;15.63;11.30;;;;;;;21.07;23.85;94240.69;5094272;28;20044;-52
2021/01/01 07:51:09;;;;;;;14.63;10.50;;;;;;;20.67;23.75;94239.25;5077266;28;20052;-51
2021/01/01 07:53:37;;;;;;;14.80;11.32;;;;;;;21.30;23.33;94238.81;5075035;28;20060;-51
2021/01/01 07:56:08;;;;;;;16.20;11.48;;;;;;;21.37;22.37;94233.63;5075072;28;20056;-50
2021/01/01 07:58:36;;;;;;;12.85;10.15;;;;;;;21.47;22.97;94240.97;5093896;28;20051;-50
2021/01/01 08:01:11;;;;;;;15.57;11.85;;;;;;;21.34;22.82;94244.97;5095432;28;20048;-52
2021/01/01 08:03:39;;;;;;;13.27;10.73;;;;;;;21.06;23.57;94242.56;5095155;28;20432;-51
2021/01/01 08:06:09;;;;;;;15.95;11.50;;;;;;;21.18;23.16;94257.59;5096127;28;20051;-51
2021/01/01 08:08:37;;;;;;;14.20;9.93;;;;;;;20.90;23.77;94253.34;5096251;28;20047;-50
2021/01/01 08:11:06;;;;;;;14.38;11.15;;;;;;;20.76;23.87;94252.31;5095192;28;20331;-53
2021/01/01 08:13:35;;;;;;;14.63;10.43;;;;;;;21.46;23.57;94255.41;5094894;28;20063;-50
2021/01/01 08:16:16;;;;;;;13.05;10.15;;;;;;;21.61;23.21;94259.06;5094880;28;20051;-48
2021/01/01 08:18:44;;;;;;;18.40;12.65;;;;;;;22.53;21.56;94254.16;5085380;28;20055;-51
2021/01/01 08:21:11;;;;;;;23.02;16.25;;;;;;;22.54;21.46;94263.69;5074507;28;20348;-50
2021/01/01 08:23:53;;;;;;;21.67;16.33;;;;;;;22.66;21.06;94268.00;5074478;28;20044;-49
2021/01/01 08:26:20;;;;;;;21.92;17.25;;;;;;;22.48;21.96;94262.47;5102313;28;20043;-53
2021/01/01 08:28:51;;;;;;;19.95;16.55;;;;;;;22.20;21.97;94265.56;5103750;28;20051;-51
2021/01/01 08:31:20;;;;;;;21.05;17.23;;;;;;;22.39;21.26;94270.75;5088056;28;20044;-52
2021/01/01 08:33:52;;;;;;;24.67;19.42;;;;;;;22.95;20.88;94274.41;5101238;28;20055;-53
2021/01/01 08:36:22;;;;;;;24.90;19.10;;;;;;;22.57;21.83;94270.94;5104253;28;20141;-51
2021/01/01 08:38:49;;;;;;;28.00;21.92;;;;;;;23.04;21.85;94277.53;5087023;28;20058;-53
2021/01/01 08:41:19;;;;;;;36.55;24.77;;;;;;;22.73;22.04;94284.06;5105281;28;21064;-49
2021/01/01 08:43:46;;;;;;;24.23;20.23;;;;;;;23.23;21.53;94274.69;5095372;28;20488;-49
2021/01/01 08:46:17;;;;;;;23.42;19.05;;;;;;;23.47;21.18;94288.59;5089817;28;20052;-52
2021/01/01 08:48:45;;;;;;;27.98;23.70;;;;;;;23.44;21.37;94289.31;5094098;28;20397;-54
2021/01/01 08:51:12;;;;;;;32.95;25.83;;;;;;;23.23;21.40;94279.25;5094512;28;20040;-53
2021/01/01 08:53:40;;;;;;;31.50;23.50;;;;;;;23.58;21.12;94278.78;5093737;28;20078;-51
2021/01/01 08:56:08;;;;;;;35.88;27.55;;;;;;;23.06;21.68;94275.28;5094221;28;20055;-54
2021/01/01 08:58:36;;;;;;;33.25;25.80;;;;;;;23.78;20.47;94277.41;5094350;28;20052;-51
2021/01/01 09:01:18;;;;;;;31.60;26.38;;;;;;;24.23;20.82;94286.06;5088611;28;20051;-55
2021/01/01 09:03:45;;;;;;;33.38;27.85;;;;;;;23.57;21.05;94272.69;5074554;28;20048;-51
2021/01/01 09:06:19;;;;;;;37.92;31.92;;;;;;;23.31;21.77;94276.25;5095714;28;20048;-52
2021/01/01 09:08:46;;;;;;;40.70;34.08;;;;;;;23.55;20.99;94279.50;5094175;28;20378;-51
2021/01/01 09:11:21;;;;;;;35.20;29.42;;;;;;;23.14;21.46;94282.19;5089372;28;20048;-51
2021/01/01 09:14:08;;;;;;;36.67;27.08;;;;;;;23.76;21.04;94285.00;5073702;28;20517;-52
2021/01/01 09:16:36;;;;;;;39.97;30.83;;;;;;;23.43;21.80;94293.13;5074209;28;20060;-50
2021/01/01 09:19:10;;;;;;;30.45;25.00;;;;;;;23.26;21.27;94279.28;5083137;28;20377;-51
2021/01/01 09:21:37;;;;;;;32.08;24.50;;;;;;;23.60;20.63;94287.94;5093908;28;20039;-51
2021/01/01 09:24:05;;;;;;;25.40;20.25;;;;;;;23.63;21.33;94286.44;5086943;28;20052;-52
2021/01/01 09:26:32;;;;;;;22.15;16.38;;;;;;;23.38;21.20;94284.31;5073856;28;20044;-50
2021/01/01 09:29:04;;;;;;;18.90;15.90;;;;;;;23.38;21.92;94281.66;5081996;28;20048;-53
2021/01/01 09:31:31;;;;;;;23.57;16.00;;;;;;;23.57;20.79;94287.91;5093794;28;20107;-52
2021/01/01 09:34:06;;;;;;;16.20;12.20;;;;;;;23.48;21.44;94284.78;5093501;28;20286;-53
2021/01/01 09:36:38;;;;;;;16.42;12.05;;;;;;;23.54;20.49;94283.28;5098657;28;20044;-54
2021/01/01 09:39:07;;;;;;;12.82;10.00;;;;;;;23.65;20.28;94289.50;5100122;28;20047;-52
2021/01/01 09:41:38;;;;;;;13.48;9.00;;;;;;;23.91;20.52;94291.19;5094057;28;20047;-51
2021/01/01 09:44:06;;;;;;;14.13;9.00;;;;;;;23.72;20.42;94286.13;5093704;28;20048;-52
2021/01/01 09:46:33;;;;;;;12.75;8.77;;;;;;;23.87;20.56;94291.19;5093895;28;20055;-55
2021/01/01 09:49:00;;;;;;;11.35;8.00;;;;;;;23.54;21.09;94284.06;5079922;28;20551;-51
2021/01/01 09:51:27;;;;;;;9.90;7.22;;;;;;;23.86;20.89;94283.53;5097096;28;20044;-50
2021/01/01 09:53:54;;;;;;;9.77;7.45;;;;;;;23.97;20.65;94273.72;5097570;28;20056;-50
2021/01/01 09:56:22;;;;;;;10.57;7.47;;;;;;;23.82;20.51;94275.50;5097790;28;20044;-52
2021/01/01 09:58:49;;;;;;;8.73;6.15;;;;;;;24.31;20.10;94284.19;5096886;28;20059;-50
2021/01/01 10:01:17;;;;;;;9.88;6.25;;;;;;;24.62;20.02;94272.09;5097921;28;20043;-53
2021/01/01 10:03:44;;;;;;;17.48;12.63;;;;;;;25.32;18.66;94273.41;5085437;28;20391;-50
2021/01/01 10:06:13;;;;;;;10.55;7.45;;;;;;;25.00;19.46;94274.16;5080457;28;20048;-52
2021/01/01 10:08:40;;;;;;;13.07;7.53;;;;;;;25.22;19.05;94282.94;5115246;28;20047;-51
2021/01/01 10:11:12;;;;;;;13.07;9.77;;;;;;;25.54;18.68;94272.28;5100409;28;20465;-50
2021/01/01 10:13:40;;;;;;;6.80;4.35;;;;;;;25.41;17.44;94257.72;5104510;28;20051;-50
2021/01/01 10:16:11;;;;;;;3.13;2.17;;;;;;;25.63;16.22;94267.28;5117663;28;20048;-52
2021/01/01 10:18:40;;;;;;;2.55;1.40;;;;;;;25.56;15.44;94261.94;5079922;28;20118;-67
2021/01/01 10:21:08;;;;;;;2.50;1.35;;;;;;;25.62;15.39;94259.66;5109155;28;20051;-63
2021/01/01 10:23:36;;;;;;;2.25;1.50;;;;;;;25.61;15.76;94253.53;5116390;28;20052;-57
2021/01/01 10:26:03;;;;;;;2.53;1.45;;;;;;;26.38;15.55;94262.56;5104989;28;20048;-56
2021/01/01 10:28:30;;;;;;;2.22;1.10;;;;;;;25.76;15.82;94251.59;5081806;28;20061;-54
2021/01/01 10:30:59;;;;;;;2.70;1.33;;;;;;;25.60;16.08;94249.31;5117503;28;20047;-54
2021/01/01 10:33:26;;;;;;;3.85;1.40;;;;;;;26.00;15.90;94247.34;5117396;28;20054;-52
2021/01/01 10:35:53;;;;;;;2.63;1.60;;;;;;;26.30;15.37;94247.66;5117353;28;20036;-54
2021/01/01 10:38:20;;;;;;;2.38;1.40;;;;;;;26.26;15.67;94238.09;5116818;28;20047;-55
2021/01/01 10:40:47;;;;;;;3.38;1.30;;;;;;;26.35;16.35;94251.88;5117274;28;20051;-56
2021/01/01 10:43:15;;;;;;;1.77;1.30;;;;;;;26.07;15.05;94236.63;5117301;28;20457;-55
2021/01/01 10:45:42;;;;;;;3.15;1.35;;;;;;;25.90;15.10;94230.16;5116757;28;20059;-53
2021/01/01 10:48:09;;;;;;;3.50;1.30;;;;;;;25.88;15.15;94229.78;5117101;28;20048;-53
2021/01/01 10:50:36;;;;;;;3.20;1.58;;;;;;;25.78;15.40;94230.59;5116797;28;20055;-51
2021/01/01 10:53:03;;;;;;;2.42;1.10;;;;;;;25.88;15.33;94224.44;5099057;28;20051;-56
2021/01/01 10:55:31;;;;;;;1.95;1.17;;;;;;;25.93;14.53;94215.25;5116284;28;20044;-54
2021/01/01 10:57:58;;;;;;;2.83;1.10;;;;;;;25.87;15.34;94216.78;5116833;28;20051;-56
2021/01/01 11:00:26;;;;;;;2.17;1.40;;;;;;;26.27;14.87;94224.31;5115833;28;20050;-55
2021/01/01 11:02:53;;;;;;;2.10;1.27;;;;;;;26.21;14.57;94212.47;5099032;28;20047;-51
2021/01/01 11:05:20;;;;;;;1.45;0.95;;;;;;;25.85;14.48;94225.22;5116586;28;20044;-59
2021/01/01 11:07:47;;;;;;;1.55;1.00;;;;;;;25.94;14.78;94222.13;5115882;28;20056;-51
2021/01/01 11:10:14;;;;;;;1.77;0.90;;;;;;;25.55;14.95;94222.94;5116298;28;20453;-55
2021/01/01 11:12:41;;;;;;;2.22;1.02;;;;;;;25.65;15.11;94211.47;5116761;28;20054;-53
2021/01/01 12:27:35;;;;;;;4.95;3.00;;;;;;;24.71;15.27;94245.78;5084312;28;20374;-48
2021/01/01 12:30:08;;;;;;;3.42;2.58;;;;;;;24.94;15.34;94245.44;5074486;28;20443;-50
2021/01/01 12:32:38;;;;;;;2.90;2.05;;;;;;;24.99;15.24;94250.47;5081557;28;20058;-51
2021/01/01 12:35:07;;;;;;;2.80;1.80;;;;;;;24.58;15.32;94243.47;5114874;28;20351;-47
2021/01/01 12:37:35;;;;;;;2.35;1.45;;;;;;;24.28;15.63;94249.09;5114539;28;20044;-51
2021/01/01 12:40:04;;;;;;;1.50;0.90;;;;;;;24.15;15.37;94241.75;5114910;28;20047;-48